Time;durP1;ratioP1;P1;durP2;ratioP2;P2;SDS_P1;SDS_P2;PMS_P1;PMS_P2;Temp;Humidity;BMP_temperature;BMP_pressure;BME280_temperature;BME280_humidity;BME280_pressure;Samples;Min_cycle;Max_cycle;Signal;HPM_P1;HPM_P2
2022/03/27 00:00:38;;;;;;;4.40;4.00;;;18.70;63.00;;;;;;4967576;28;45133;-75
2022/03/27 00:03:07;;;;;;;4.33;4.13;;;18.70;63.40;;;;;;4966336;28;44054;-75
2022/03/27 00:05:37;;;;;;;3.63;3.50;;;18.80;63.40;;;;;;4948760;28;43950;-75
2022/03/27 00:08:09;;;;;;;3.23;3.13;;;18.90;63.20;;;;;;4948322;28;43590;-75
2022/03/27 00:13:21;;;;;;;3.83;3.63;;;19.30;62.20;;;;;;4966427;28;43441;-76
2022/03/27 00:15:49;;;;;;;3.67;3.57;;;19.40;61.80;;;;;;4966754;28;43945;-75
2022/03/27 00:18:18;;;;;;;3.73;3.53;;;19.40;61.70;;;;;;4949553;28;43911;-75
2022/03/27 00:20:46;;;;;;;3.87;3.70;;;19.30;61.60;;;;;;4949275;28;46105;-75
2022/03/27 00:23:15;;;;;;;3.37;3.27;;;19.20;61.60;;;;;;4949127;28;44917;-76
2022/03/27 00:25:45;;;;;;;3.40;3.30;;;19.10;61.80;;;;;;4966730;28;44045;-76
2022/03/27 00:28:13;;;;;;;3.30;3.20;;;19.10;62.10;;;;;;4967471;28;43391;-76
2022/03/27 00:30:41;;;;;;;3.53;3.43;;;19.00;62.40;;;;;;4966901;28;44182;-75
2022/03/27 00:33:09;;;;;;;3.60;3.50;;;18.90;62.50;;;;;;4966364;28;44013;-76
2022/03/27 00:35:37;;;;;;;4.07;3.87;;;18.90;62.80;;;;;;4949520;28;44051;-75
2022/03/27 00:38:06;;;;;;;4.07;3.77;;;18.90;63.30;;;;;;4967730;28;44295;-76
2022/03/27 00:40:36;;;;;;;3.30;3.20;;;18.90;63.20;;;;;;4966282;28;43782;-75
2022/03/27 00:43:04;;;;;;;3.60;3.40;;;19.10;62.90;;;;;;4966701;28;43907;-75
2022/03/27 00:45:32;;;;;;;3.30;3.20;;;19.10;62.60;;;;;;4969910;28;43908;-76
2022/03/27 00:48:00;;;;;;;3.33;3.23;;;19.10;62.40;;;;;;4970660;28;43478;-76
2022/03/27 00:50:30;;;;;;;3.63;3.53;;;19.00;62.30;;;;;;4969983;28;44006;-75
2022/03/27 00:52:58;;;;;;;3.17;3.07;;;19.00;62.50;;;;;;4969843;28;43890;-76
2022/03/27 00:55:26;;;;;;;3.40;3.30;;;18.90;62.60;;;;;;4970147;28;43956;-75
2022/03/27 00:57:56;;;;;;;3.00;3.00;;;18.90;62.80;;;;;;4970320;28;43819;-75
2022/03/27 01:00:55;;;;;;;3.50;3.40;;;18.80;62.90;;;;;;4952506;28;47144;-73
2022/03/27 01:03:25;;;;;;;3.30;3.20;;;18.80;63.10;;;;;;4925321;28;43994;-73
2022/03/27 01:05:53;;;;;;;3.20;3.10;;;18.70;63.00;;;;;;4969844;28;44140;-74
2022/03/27 01:11:11;;;;;;;3.50;3.40;;;18.70;63.50;;;;;;4951371;28;45752;-74
2022/03/27 01:13:45;;;;;;;3.57;3.47;;;18.80;63.60;;;;;;4969707;28;44127;-74
2022/03/27 01:16:17;;;;;;;3.50;3.40;;;18.90;63.40;;;;;;4969747;28;44035;-73
2022/03/27 01:18:46;;;;;;;3.70;3.60;;;19.10;63.00;;;;;;4966360;28;43952;-74
2022/03/27 01:21:15;;;;;;;3.40;3.23;;;19.30;62.50;;;;;;4951544;28;45809;-74
2022/03/27 01:23:43;;;;;;;3.37;3.20;;;19.40;62.00;;;;;;4969030;28;44072;-73
2022/03/27 01:26:12;;;;;;;3.57;3.47;;;19.40;61.70;;;;;;4951723;28;44015;-73
2022/03/27 01:28:41;;;;;;;3.13;3.03;;;19.30;61.60;;;;;;4969543;28;44140;-73
2022/03/27 01:31:09;;;;;;;3.30;3.20;;;19.30;61.70;;;;;;4969171;28;43922;-74
2022/03/27 01:33:37;;;;;;;3.00;2.90;;;19.20;61.80;;;;;;4969561;28;43965;-73
2022/03/27 01:36:05;;;;;;;3.43;3.33;;;19.10;62.00;;;;;;4969520;28;43930;-73
2022/03/27 01:38:35;;;;;;;3.70;3.60;;;19.00;62.20;;;;;;4969370;28;43955;-74
2022/03/27 01:41:03;;;;;;;3.30;3.20;;;18.90;62.40;;;;;;4968902;28;43960;-73
2022/03/27 01:43:31;;;;;;;3.63;3.53;;;18.90;62.60;;;;;;4969106;28;43875;-74
2022/03/27 01:45:59;;;;;;;3.37;3.27;;;18.80;63.20;;;;;;4969248;28;43951;-74
2022/03/27 01:48:26;;;;;;;3.33;3.13;;;18.90;63.30;;;;;;4951836;28;43912;-74
2022/03/27 01:51:00;;;;;;;3.57;3.47;;;19.00;63.00;;;;;;4969041;28;44473;-74
2022/03/27 01:53:31;;;;;;;3.30;3.20;;;19.10;62.70;;;;;;4951435;28;44641;-74
2022/03/27 01:56:01;;;;;;;3.17;3.07;;;19.10;62.30;;;;;;4968439;28;44002;-74
2022/03/27 01:58:30;;;;;;;3.13;3.07;;;19.00;62.20;;;;;;4969422;28;44127;-74
2022/03/27 02:00:58;;;;;;;2.97;2.87;;;19.00;62.30;;;;;;4968899;28;43838;-72
2022/03/27 02:03:28;;;;;;;3.63;3.53;;;18.90;62.40;;;;;;4951112;28;44916;-74
2022/03/27 02:05:56;;;;;;;3.27;3.17;;;18.90;62.70;;;;;;4968734;28;43438;-73
2022/03/27 02:08:24;;;;;;;3.30;3.20;;;18.80;62.80;;;;;;4968644;28;43974;-73
2022/03/27 02:10:56;;;;;;;3.20;3.10;;;18.80;63.00;;;;;;4968665;28;44812;-73
2022/03/27 02:13:26;;;;;;;3.20;3.10;;;18.70;63.00;;;;;;4968694;28;44017;-75
2022/03/27 02:15:57;;;;;;;3.17;3.07;;;18.70;63.10;;;;;;4968722;28;43432;-73
2022/03/27 02:18:26;;;;;;;3.33;3.13;;;18.70;63.10;;;;;;4968991;28;43910;-73
2022/03/27 02:20:55;;;;;;;3.33;3.23;;;18.70;63.60;;;;;;4968366;28;44014;-73
2022/03/27 02:23:23;;;;;;;3.00;2.90;;;18.80;63.50;;;;;;4968358;28;44058;-73
2022/03/27 02:25:51;;;;;;;3.33;3.23;;;18.90;63.10;;;;;;4968241;28;43495;-73
2022/03/27 02:28:19;;;;;;;2.77;2.67;;;19.10;62.80;;;;;;4951025;28;44230;-74
2022/03/27 02:30:48;;;;;;;3.27;3.13;;;19.20;62.30;;;;;;4968381;28;43994;-73
2022/03/27 02:33:16;;;;;;;3.10;3.00;;;19.30;62.00;;;;;;4968087;28;43963;-73
2022/03/27 02:35:45;;;;;;;2.80;2.70;;;19.30;61.90;;;;;;4968583;28;43394;-74
2022/03/27 02:38:13;;;;;;;3.40;3.30;;;19.20;61.80;;;;;;4968788;28;43461;-75
2022/03/27 02:40:42;;;;;;;3.07;2.97;;;19.10;61.90;;;;;;4968497;28;43626;-72
2022/03/27 02:43:10;;;;;;;3.17;3.00;;;19.00;62.10;;;;;;4968134;28;43969;-73
2022/03/27 02:45:38;;;;;;;3.00;3.00;;;18.90;62.40;;;;;;4968492;28;43999;-74
2022/03/27 02:48:08;;;;;;;2.80;2.80;;;18.90;62.50;;;;;;4968797;28;43913;-73
2022/03/27 02:50:39;;;;;;;2.90;2.80;;;18.80;62.70;;;;;;4968171;28;44812;-73
2022/03/27 02:53:07;;;;;;;3.20;3.10;;;18.80;62.90;;;;;;4968339;28;43946;-74
2022/03/27 02:55:35;;;;;;;3.43;3.33;;;18.70;63.30;;;;;;4968378;28;43336;-74
2022/03/27 02:58:03;;;;;;;2.73;2.73;;;18.80;63.40;;;;;;4968289;28;43998;-75
2022/03/27 03:00:31;;;;;;;3.10;3.00;;;18.90;63.30;;;;;;4967874;28;44954;-73
2022/03/27 03:02:59;;;;;;;3.20;3.10;;;19.00;62.80;;;;;;4950220;28;44677;-73
2022/03/27 03:05:29;;;;;;;2.67;2.67;;;19.00;62.40;;;;;;4950204;28;43574;-74
2022/03/27 03:07:57;;;;;;;3.10;3.00;;;19.00;62.40;;;;;;4966850;28;44272;-74
2022/03/27 03:10:25;;;;;;;2.80;2.80;;;18.90;62.40;;;;;;4967528;28;44981;-74
2022/03/27 03:12:53;;;;;;;3.10;3.00;;;18.90;62.60;;;;;;4967937;28;44706;-73
2022/03/27 03:15:23;;;;;;;3.23;3.13;;;18.80;62.70;;;;;;4968056;28;43980;-74
2022/03/27 03:17:51;;;;;;;3.20;3.10;;;18.80;62.90;;;;;;4968356;28;43958;-74
2022/03/27 03:20:20;;;;;;;2.73;2.73;;;18.70;62.90;;;;;;4949814;28;45686;-74
2022/03/27 03:22:50;;;;;;;3.03;2.93;;;18.70;63.10;;;;;;4967420;28;43789;-74
2022/03/27 03:25:18;;;;;;;2.90;2.90;;;18.70;63.20;;;;;;4967497;28;44042;-74
2022/03/27 03:27:46;;;;;;;3.10;3.00;;;18.60;63.20;;;;;;4967977;28;43932;-74
2022/03/27 03:30:16;;;;;;;3.10;3.00;;;18.60;63.50;;;;;;4949147;28;46552;-73
2022/03/27 03:32:43;;;;;;;3.20;3.10;;;18.70;63.60;;;;;;4967616;28;44002;-72
2022/03/27 03:35:11;;;;;;;3.10;3.03;;;18.80;63.40;;;;;;4967397;28;43350;-73
2022/03/27 03:38:01;;;;;;;3.00;2.90;;;19.00;63.00;;;;;;4967893;28;43954;-73
2022/03/27 03:40:29;;;;;;;3.13;3.03;;;19.20;62.40;;;;;;4949471;28;44261;-73
2022/03/27 03:42:57;;;;;;;2.93;2.90;;;19.30;61.90;;;;;;4967016;28;43978;-73
2022/03/27 03:45:25;;;;;;;2.97;2.87;;;19.30;61.80;;;;;;4967335;28;43351;-73
2022/03/27 03:47:53;;;;;;;3.10;3.00;;;19.30;61.80;;;;;;4950099;28;43574;-73
2022/03/27 03:50:21;;;;;;;2.50;2.50;;;19.20;61.80;;;;;;4949564;28;47212;-73
2022/03/27 03:52:49;;;;;;;2.57;2.57;;;19.10;62.00;;;;;;4949688;28;44799;-73
2022/03/27 03:55:18;;;;;;;3.23;3.13;;;19.00;62.20;;;;;;4967189;28;43441;-75
2022/03/27 03:57:46;;;;;;;2.40;2.40;;;18.90;62.50;;;;;;4967669;28;43278;-73
2022/03/27 04:00:15;;;;;;;2.80;2.77;;;18.80;62.70;;;;;;4966693;28;45076;-73
2022/03/27 04:02:44;;;;;;;3.07;2.97;;;18.80;62.90;;;;;;4949386;28;43434;-73
2022/03/27 04:05:12;;;;;;;3.00;2.90;;;18.80;63.60;;;;;;4967400;28;43912;-73
2022/03/27 04:07:40;;;;;;;3.00;2.90;;;18.90;63.40;;;;;;4967615;28;43990;-73
2022/03/27 04:10:09;;;;;;;2.87;2.77;;;19.00;63.00;;;;;;4966779;28;44121;-73
2022/03/27 04:12:38;;;;;;;2.93;2.83;;;19.00;62.70;;;;;;4967131;28;43867;-72
2022/03/27 04:15:07;;;;;;;2.80;2.80;;;19.00;62.50;;;;;;4967228;28;44097;-73
2022/03/27 04:17:43;;;;;;;2.77;2.77;;;18.90;62.50;;;;;;4967370;28;43888;-74
2022/03/27 04:20:12;;;;;;;3.07;2.97;;;18.80;62.60;;;;;;4951518;28;45745;-74
2022/03/27 04:22:40;;;;;;;3.07;3.00;;;18.80;62.80;;;;;;4970082;28;43877;-74
2022/03/27 04:25:09;;;;;;;3.20;3.10;;;18.70;62.90;;;;;;4970492;28;44048;-74
2022/03/27 04:27:39;;;;;;;2.80;2.80;;;18.70;63.10;;;;;;4970651;28;44010;-75
2022/03/27 04:30:09;;;;;;;3.10;3.00;;;18.70;63.20;;;;;;4952500;28;46877;-74
2022/03/27 04:32:37;;;;;;;2.60;2.60;;;18.70;63.30;;;;;;4970429;28;43924;-73
2022/03/27 04:35:06;;;;;;;3.10;3.00;;;18.60;63.30;;;;;;4970418;28;43915;-73
2022/03/27 04:37:38;;;;;;;2.70;2.70;;;18.70;63.80;;;;;;4970497;28;43945;-74
2022/03/27 04:40:07;;;;;;;3.00;2.90;;;18.80;63.60;;;;;;4969840;28;43946;-73
2022/03/27 04:42:35;;;;;;;2.63;2.63;;;18.90;63.00;;;;;;4969926;28;43945;-73
2022/03/27 04:45:04;;;;;;;3.00;2.93;;;19.20;62.70;;;;;;4969863;28;43932;-74
2022/03/27 04:47:32;;;;;;;2.67;2.60;;;19.30;62.10;;;;;;4957781;28;44123;-74
2022/03/27 04:50:00;;;;;;;2.90;2.80;;;19.30;61.90;;;;;;4957373;28;43981;-74
2022/03/27 04:52:28;;;;;;;3.10;3.00;;;19.20;61.60;;;;;;4958122;28;43982;-74
2022/03/27 04:54:56;;;;;;;2.40;2.40;;;19.20;61.80;;;;;;4958011;28;43904;-73
2022/03/27 04:57:24;;;;;;;2.83;2.83;;;19.10;62.10;;;;;;4946662;28;43989;-73
2022/03/27 04:59:52;;;;;;;2.87;2.77;;;19.00;62.20;;;;;;4957488;28;43943;-73
2022/03/27 05:02:23;;;;;;;3.00;2.90;;;18.90;62.50;;;;;;4957579;28;43915;-74
2022/03/27 05:04:51;;;;;;;2.67;2.67;;;18.80;62.70;;;;;;4958135;28;44025;-73
2022/03/27 05:07:19;;;;;;;2.90;2.90;;;18.80;62.80;;;;;;4970160;28;44027;-73
2022/03/27 05:09:47;;;;;;;2.70;2.70;;;18.70;62.90;;;;;;4951542;28;47262;-73
2022/03/27 05:12:15;;;;;;;3.10;3.00;;;18.70;63.40;;;;;;4969740;28;44018;-72
2022/03/27 05:14:43;;;;;;;2.90;2.90;;;18.80;63.30;;;;;;4969804;28;43914;-72
2022/03/27 05:17:11;;;;;;;2.73;2.73;;;19.00;63.10;;;;;;4945031;28;43405;-73
2022/03/27 05:19:41;;;;;;;2.90;2.80;;;19.10;62.50;;;;;;4951646;28;45877;-73
2022/03/27 05:22:10;;;;;;;2.93;2.90;;;19.20;62.20;;;;;;4968835;28;44140;-73
2022/03/27 05:24:38;;;;;;;2.90;2.90;;;19.10;62.00;;;;;;4969860;28;43974;-74
2022/03/27 05:27:06;;;;;;;3.03;2.93;;;19.10;62.10;;;;;;4970151;28;43487;-74
2022/03/27 05:29:34;;;;;;;3.07;2.97;;;19.00;62.20;;;;;;4951497;28;45781;-74
2022/03/27 05:32:02;;;;;;;2.97;2.90;;;18.90;62.40;;;;;;4968189;28;43928;-74
2022/03/27 05:34:30;;;;;;;2.67;2.67;;;18.80;62.70;;;;;;4951832;28;43989;-73
2022/03/27 05:36:59;;;;;;;2.87;2.87;;;18.80;62.80;;;;;;4952131;28;43973;-72
2022/03/27 05:39:27;;;;;;;2.43;2.43;;;18.70;62.90;;;;;;4969265;28;43970;-73
2022/03/27 05:41:55;;;;;;;3.23;3.17;;;18.70;63.10;;;;;;4968796;28;44006;-72
2022/03/27 05:44:23;;;;;;;2.70;2.70;;;18.70;63.20;;;;;;4969288;28;44014;-73
2022/03/27 05:46:51;;;;;;;2.70;2.70;;;18.70;63.50;;;;;;4969689;28;44006;-72
2022/03/27 05:49:19;;;;;;;2.90;2.80;;;18.80;63.40;;;;;;4951233;28;45894;-74
2022/03/27 05:51:47;;;;;;;2.83;2.80;;;18.90;63.00;;;;;;4968924;28;43969;-73
2022/03/27 05:54:16;;;;;;;2.70;2.70;;;19.10;62.60;;;;;;4969012;28;43879;-73
2022/03/27 05:56:44;;;;;;;3.00;3.00;;;19.20;62.00;;;;;;4969186;28;43938;-74
2022/03/27 05:59:13;;;;;;;2.60;2.60;;;19.20;61.90;;;;;;4968955;28;44030;-74
2022/03/27 06:01:41;;;;;;;2.73;2.70;;;19.20;61.80;;;;;;4951423;28;44489;-74
2022/03/27 06:04:09;;;;;;;3.10;3.00;;;19.10;62.00;;;;;;4968979;28;44158;-74
2022/03/27 06:06:37;;;;;;;2.67;2.60;;;19.00;62.20;;;;;;4969427;28;44116;-73
2022/03/27 06:09:05;;;;;;;2.87;2.77;;;18.90;62.40;;;;;;4951050;28;45794;-73
2022/03/27 06:11:35;;;;;;;2.90;2.80;;;18.80;62.50;;;;;;4968519;28;43488;-74
2022/03/27 06:14:03;;;;;;;2.40;2.40;;;18.80;62.70;;;;;;4968849;28;43954;-74
2022/03/27 06:16:31;;;;;;;2.80;2.73;;;18.70;62.90;;;;;;4951453;28;44232;-74
2022/03/27 06:18:59;;;;;;;2.73;2.73;;;18.70;63.20;;;;;;4951134;28;45724;-73
2022/03/27 06:21:27;;;;;;;2.60;2.60;;;18.70;63.40;;;;;;4950746;28;44568;-74
2022/03/27 06:23:55;;;;;;;3.00;2.90;;;18.80;63.20;;;;;;4968213;28;43382;-73
2022/03/27 06:26:23;;;;;;;2.97;2.90;;;18.90;62.80;;;;;;4968929;28;43967;-73
2022/03/27 06:28:52;;;;;;;2.40;2.40;;;19.00;62.60;;;;;;4968487;28;44004;-74
2022/03/27 06:31:20;;;;;;;2.50;2.50;;;18.90;62.20;;;;;;4950682;28;45942;-73
2022/03/27 06:33:48;;;;;;;3.00;2.80;;;18.90;62.40;;;;;;4951047;28;43518;-74
2022/03/27 06:36:16;;;;;;;3.00;2.90;;;18.80;62.50;;;;;;4951159;28;44036;-73
2022/03/27 06:38:44;;;;;;;2.80;2.80;;;18.80;62.70;;;;;;4968191;28;43935;-73
2022/03/27 06:41:12;;;;;;;3.07;2.97;;;18.70;62.90;;;;;;4950106;28;44668;-72
2022/03/27 06:43:40;;;;;;;2.63;2.60;;;18.70;63.00;;;;;;4968284;28;43982;-73
2022/03/27 06:46:13;;;;;;;2.70;2.70;;;18.60;63.00;;;;;;4968915;28;44292;-73
2022/03/27 06:48:41;;;;;;;2.90;2.90;;;18.60;63.20;;;;;;4968219;28;45062;-72
2022/03/27 06:51:09;;;;;;;2.90;2.90;;;18.60;63.30;;;;;;4950420;28;45154;-72
2022/03/27 06:53:37;;;;;;;2.60;2.60;;;18.60;63.50;;;;;;4968218;28;43861;-72
2022/03/27 06:56:05;;;;;;;2.80;2.70;;;18.60;63.70;;;;;;4951060;28;43996;-73
2022/03/27 06:58:33;;;;;;;2.80;2.80;;;18.70;64.20;;;;;;4968366;28;44068;-73
2022/03/27 07:03:49;;;;;;;3.10;3.00;;;19.10;62.60;;;;;;4950368;28;44054;-74
2022/03/27 07:06:17;;;;;;;2.53;2.53;;;19.20;62.00;;;;;;4968363;28;44088;-72
2022/03/27 07:08:46;;;;;;;3.37;3.27;;;19.30;61.90;;;;;;4967326;28;43925;-74
2022/03/27 07:11:14;;;;;;;2.43;2.43;;;19.20;61.80;;;;;;4967663;28;44032;-74
2022/03/27 07:13:42;;;;;;;2.90;2.80;;;19.10;61.90;;;;;;4950201;28;44097;-73
2022/03/27 07:16:11;;;;;;;2.97;2.97;;;19.00;62.00;;;;;;4968310;28;43513;-73
2022/03/27 07:18:39;;;;;;;2.90;2.80;;;18.90;62.30;;;;;;4968404;28;43956;-73
2022/03/27 07:21:09;;;;;;;2.73;2.73;;;18.80;62.50;;;;;;4967576;28;44076;-73
2022/03/27 07:23:37;;;;;;;3.17;3.07;;;18.80;63.50;;;;;;4967939;28;43924;-74
2022/03/27 07:26:05;;;;;;;2.83;2.73;;;18.70;62.90;;;;;;4950783;28;43457;-74
2022/03/27 07:28:33;;;;;;;3.10;3.00;;;18.70;63.50;;;;;;4967280;28;44033;-73
2022/03/27 07:31:02;;;;;;;2.87;2.80;;;18.70;63.40;;;;;;4967649;28;43963;-73
2022/03/27 07:33:30;;;;;;;2.63;2.63;;;18.90;63.20;;;;;;4954986;28;43970;-74
2022/03/27 07:35:58;;;;;;;3.00;2.90;;;19.00;62.80;;;;;;4955639;28;43929;-73
2022/03/27 07:38:27;;;;;;;2.60;2.60;;;19.00;62.40;;;;;;4955042;28;44806;-73
2022/03/27 07:41:00;;;;;;;2.93;2.83;;;18.90;62.30;;;;;;4956637;28;43904;-74
2022/03/27 07:43:29;;;;;;;2.80;2.80;;;18.90;62.50;;;;;;4949997;28;44002;-73
2022/03/27 07:45:56;;;;;;;2.87;2.77;;;18.80;62.70;;;;;;4950078;28;44231;-73
2022/03/27 07:48:26;;;;;;;2.80;2.80;;;18.70;62.90;;;;;;4967245;28;43935;-73
2022/03/27 07:50:56;;;;;;;2.77;2.77;;;18.70;63.10;;;;;;4967036;28;43942;-74
2022/03/27 07:53:31;;;;;;;2.57;2.57;;;18.60;63.10;;;;;;4966872;28;43888;-85
2022/03/27 07:55:59;;;;;;;2.60;2.60;;;18.60;63.30;;;;;;4967685;28;43945;-74
2022/03/27 07:58:27;;;;;;;2.90;2.90;;;18.60;63.40;;;;;;4967120;28;44980;-75
2022/03/27 08:00:55;;;;;;;2.80;2.70;;;18.50;63.30;;;;;;4967047;28;44029;-76
2022/03/27 08:03:23;;;;;;;2.90;2.80;;;18.60;63.80;;;;;;4949640;28;43411;-75
2022/03/27 08:05:51;;;;;;;3.13;3.03;;;18.70;63.60;;;;;;4967368;28;44131;-75
2022/03/27 08:08:19;;;;;;;2.57;2.57;;;18.80;63.30;;;;;;4966945;28;44715;-75
2022/03/27 08:10:48;;;;;;;2.30;2.30;;;19.00;62.80;;;;;;4966761;28;43457;-75
2022/03/27 08:13:16;;;;;;;2.77;2.77;;;19.20;62.40;;;;;;4949366;28;43884;-75
2022/03/27 08:15:47;;;;;;;2.50;2.50;;;19.20;62.00;;;;;;4967465;28;43946;-75
2022/03/27 08:18:15;;;;;;;2.63;2.63;;;19.20;61.80;;;;;;4966685;28;43910;-76
2022/03/27 08:20:43;;;;;;;2.60;2.60;;;19.20;61.80;;;;;;4966816;28;43444;-76
2022/03/27 08:23:12;;;;;;;2.63;2.63;;;19.10;62.00;;;;;;4967004;28;43939;-75
2022/03/27 08:28:35;;;;;;;2.80;2.70;;;18.90;62.50;;;;;;4871870;29;45567;-77
2022/03/27 08:31:03;;;;;;;2.60;2.60;;;18.80;62.70;;;;;;4872722;28;44260;-77
2022/03/27 08:33:34;;;;;;;2.40;2.40;;;18.70;62.90;;;;;;4967219;28;43920;-81
2022/03/27 08:36:04;;;;;;;2.73;2.63;;;18.70;63.10;;;;;;4967302;28;43510;-75
2022/03/27 08:38:34;;;;;;;2.83;2.73;;;18.70;63.60;;;;;;4966999;28;44034;-77
2022/03/27 08:41:02;;;;;;;2.43;2.43;;;18.80;63.60;;;;;;4966621;28;44051;-76
2022/03/27 08:43:32;;;;;;;2.30;2.30;;;18.90;63.10;;;;;;4966864;28;43951;-75
2022/03/27 08:46:01;;;;;;;2.63;2.63;;;18.90;62.70;;;;;;4967162;28;43882;-76
2022/03/27 08:48:33;;;;;;;2.20;2.20;;;18.90;62.70;;;;;;4966876;28;43998;-75
2022/03/27 08:51:11;;;;;;;2.53;2.53;;;18.90;62.70;;;;;;4948781;28;44445;-75
2022/03/27 08:53:41;;;;;;;2.27;2.27;;;18.80;62.90;;;;;;4966974;28;43929;-76
2022/03/27 08:56:09;;;;;;;2.40;2.30;;;18.70;63.00;;;;;;4949390;28;44103;-75
2022/03/27 08:58:38;;;;;;;2.30;2.30;;;18.70;63.20;;;;;;4966806;28;45130;-77
2022/03/27 09:01:08;;;;;;;2.40;2.40;;;18.60;63.30;;;;;;4966452;28;44023;-74
2022/03/27 09:03:36;;;;;;;2.50;2.50;;;18.60;63.40;;;;;;4966643;28;43322;-74
2022/03/27 09:06:06;;;;;;;2.63;2.60;;;18.60;63.60;;;;;;4968254;28;44012;-77
2022/03/27 09:08:38;;;;;;;2.57;2.57;;;18.50;63.50;;;;;;4969662;28;43959;-80
2022/03/27 09:11:06;;;;;;;2.70;2.60;;;18.50;63.80;;;;;;4969778;28;43974;-74
2022/03/27 09:13:34;;;;;;;4.60;2.83;;;18.60;64.00;;;;;;4970099;28;44056;-77
2022/03/27 09:16:05;;;;;;;3.17;2.93;;;18.70;62.80;;;;;;4952541;28;44092;-78
2022/03/27 09:18:46;;;;;;;3.03;2.83;;;18.90;62.10;;;;;;4969774;28;43673;-76
2022/03/27 09:21:16;;;;;;;3.03;2.93;;;19.10;61.40;;;;;;4969454;28;44132;-76
2022/03/27 09:23:44;;;;;;;2.90;2.80;;;19.20;61.00;;;;;;4951474;28;43488;-75
2022/03/27 09:26:16;;;;;;;2.60;2.50;;;19.20;60.70;;;;;;4970019;28;43967;-76
2022/03/27 09:28:45;;;;;;;2.73;2.53;;;19.20;60.80;;;;;;4969200;28;44048;-75
2022/03/27 09:31:26;;;;;;;2.63;2.53;;;19.10;61.00;;;;;;4969189;28;44108;-75
2022/03/27 09:33:56;;;;;;;3.10;2.90;;;19.00;61.30;;;;;;4969436;28;44041;-76
2022/03/27 09:36:26;;;;;;;2.97;2.87;;;18.90;61.50;;;;;;4951929;28;43885;-75
2022/03/27 09:39:16;;;;;;;2.80;2.60;;;18.80;61.70;;;;;;4951181;28;46626;-77
2022/03/27 09:41:45;;;;;;;2.93;2.80;;;18.70;61.80;;;;;;4947924;28;44704;-78
2022/03/27 09:44:18;;;;;;;3.97;2.80;;;18.70;62.00;;;;;;4969189;28;44095;-75
2022/03/27 09:46:54;;;;;;;2.87;2.67;;;18.70;62.20;;;;;;4951719;28;43505;-75
2022/03/27 09:49:26;;;;;;;2.83;2.73;;;18.80;62.20;;;;;;4951129;28;45743;-73
2022/03/27 09:51:58;;;;;;;6.03;4.43;;;18.90;61.80;;;;;;4951179;28;44493;-75
2022/03/27 09:54:27;;;;;;;4.60;4.20;;;18.90;61.40;;;;;;4969102;28;44095;-76
2022/03/27 09:56:56;;;;;;;6.30;4.03;;;18.90;61.70;;;;;;4951734;28;43901;-75
2022/03/27 09:59:28;;;;;;;6.70;5.07;;;18.80;61.80;;;;;;4968936;28;43883;-76
2022/03/27 10:01:57;;;;;;;8.77;5.47;;;18.80;61.80;;;;;;4968891;28;43951;-76
2022/03/27 10:04:27;;;;;;;15.37;6.80;;;18.70;61.60;;;;;;4968948;28;44034;-77
2022/03/27 10:06:56;;;;;;;9.73;5.53;;;18.70;61.40;;;;;;4969222;28;43807;-76
2022/03/27 10:09:24;;;;;;;13.07;6.83;;;18.60;61.70;;;;;;4950746;28;46005;-76
2022/03/27 10:11:53;;;;;;;13.43;6.03;;;18.60;61.70;;;;;;4950971;28;44861;-75
2022/03/27 10:14:20;;;;;;;15.63;6.87;;;18.50;61.90;;;;;;4969164;28;43776;-76
2022/03/27 10:16:48;;;;;;;31.87;9.40;;;18.50;62.20;;;;;;4950822;28;43975;-75
2022/03/27 10:19:21;;;;;;;14.57;9.20;;;18.50;61.90;;;;;;4950717;28;45673;-75
2022/03/27 10:21:51;;;;;;;25.13;10.60;;;18.50;57.80;;;;;;4950904;28;45895;-75
2022/03/27 10:24:20;;;;;;;34.43;10.43;;;18.50;58.80;;;;;;4968306;28;43500;-76
2022/03/27 10:26:48;;;;;;;19.50;10.00;;;18.70;58.00;;;;;;4968939;28;44080;-74
2022/03/27 10:29:16;;;;;;;16.87;9.77;;;18.80;57.70;;;;;;4950333;28;45518;-74
2022/03/27 10:31:44;;;;;;;17.67;9.43;;;18.90;55.60;;;;;;4968361;28;43951;-75
2022/03/27 10:34:14;;;;;;;12.60;9.10;;;18.90;57.10;;;;;;4968574;28;43933;-81
2022/03/27 10:36:52;;;;;;;9.27;8.17;;;18.90;58.00;;;;;;4956861;28;43900;-79
2022/03/27 10:39:24;;;;;;;14.53;8.53;;;18.90;58.10;;;;;;4968911;28;44688;-77
2022/03/27 10:41:58;;;;;;;11.30;8.73;;;18.90;58.50;;;;;;4968267;28;43991;-77
2022/03/27 10:44:29;;;;;;;9.50;8.60;;;18.90;58.80;;;;;;4950847;28;43998;-77
2022/03/27 10:47:17;;;;;;;8.63;8.03;;;18.90;59.00;;;;;;4951156;28;43911;-77
2022/03/27 10:50:20;;;;;;;9.63;7.60;;;18.90;58.80;;;;;;4950624;28;45398;-76
2022/03/27 10:53:09;;;;;;;15.43;9.13;;;18.90;58.80;;;;;;4967865;28;44128;-76
2022/03/27 10:55:39;;;;;;;21.73;9.07;;;18.90;57.20;;;;;;4942012;28;43933;-77
2022/03/27 10:58:25;;;;;;;32.53;9.93;;;18.90;56.00;;;;;;4957031;28;43314;-76
2022/03/27 11:00:53;;;;;;;30.87;10.23;;;19.00;55.70;;;;;;4967952;28;44079;-76
2022/03/27 11:03:42;;;;;;;52.33;10.13;;;19.00;56.70;;;;;;4950739;28;44731;-75
2022/03/27 11:06:26;;;;;;;56.77;11.70;;;19.10;57.60;;;;;;4968301;28;43765;-75
2022/03/27 11:08:57;;;;;;;64.10;12.00;;;19.10;59.20;;;;;;4951161;28;43682;-77
2022/03/27 11:11:50;;;;;;;36.07;10.37;;;19.10;61.60;;;;;;4968441;28;43946;-79
2022/03/27 11:14:24;;;;;;;66.47;12.93;;;19.10;61.80;;;;;;4950053;28;44762;-76
2022/03/27 11:17:11;;;;;;;67.03;13.67;;;19.10;63.20;;;;;;4968047;28;43889;-76
2022/03/27 11:19:44;;;;;;;56.83;12.17;;;19.10;61.10;;;;;;4951099;28;44084;-76
2022/03/27 11:22:44;;;;;;;112.77;98.63;;;19.10;62.60;;;;;;4967225;28;44049;-76
2022/03/27 11:25:33;;;;;;;71.97;41.53;;;19.10;63.80;;;;;;4956214;28;44064;-76
2022/03/27 11:28:09;;;;;;;49.10;19.90;;;19.10;61.30;;;;;;4967672;28;44012;-76
2022/03/27 11:30:40;;;;;;;65.13;19.57;;;19.10;58.80;;;;;;4968292;28;43775;-75
2022/03/27 11:33:15;;;;;;;51.47;17.20;;;19.10;58.40;;;;;;4950667;28;45650;-76
2022/03/27 11:36:04;;;;;;;43.30;13.63;;;19.20;59.10;;;;;;4968188;28;43989;-76
2022/03/27 11:38:33;;;;;;;43.47;12.63;;;19.30;56.80;;;;;;4950684;28;43984;-76
2022/03/27 11:41:26;;;;;;;46.93;12.30;;;19.40;56.60;;;;;;4950597;28;44196;-76
2022/03/27 11:43:54;;;;;;;26.63;11.63;;;19.40;58.70;;;;;;4967979;28;43966;-75
2022/03/27 11:46:23;;;;;;;29.10;11.33;;;19.40;58.90;;;;;;4949889;28;44781;-76
2022/03/27 11:48:55;;;;;;;21.07;9.93;;;19.40;59.70;;;;;;4949899;28;43951;-75
2022/03/27 11:51:24;;;;;;;13.97;8.33;;;19.40;60.20;;;;;;4967785;28;43647;-76
2022/03/27 11:53:52;;;;;;;15.73;8.47;;;19.40;59.20;;;;;;4949522;28;45992;-76
2022/03/27 11:56:20;;;;;;;13.93;8.40;;;19.30;58.30;;;;;;4949544;28;44859;-78
2022/03/27 11:59:05;;;;;;;16.90;8.23;;;19.30;57.70;;;;;;4967715;28;44060;-76
2022/03/27 12:01:33;;;;;;;18.67;7.57;;;19.30;57.40;;;;;;4967866;28;43411;-76
2022/03/27 12:04:01;;;;;;;58.60;9.33;;;19.30;55.30;;;;;;4949731;28;44056;-79
2022/03/27 12:06:30;;;;;;;20.73;8.10;;;19.30;54.90;;;;;;4967229;28;44038;-79
2022/03/27 12:08:58;;;;;;;16.30;7.00;;;19.30;53.50;;;;;;4967459;28;44029;-78
2022/03/27 12:11:27;;;;;;;19.63;7.33;;;19.30;54.80;;;;;;4950147;28;43943;-78
2022/03/27 12:13:56;;;;;;;15.20;7.20;;;19.30;54.90;;;;;;4967747;28;43852;-77
2022/03/27 12:16:26;;;;;;;14.70;6.77;;;19.30;54.90;;;;;;4967945;28;43913;-79
2022/03/27 12:18:54;;;;;;;12.10;6.63;;;19.20;54.90;;;;;;4949973;28;44041;-76
2022/03/27 12:21:22;;;;;;;11.60;7.30;;;19.20;55.20;;;;;;4967378;28;44005;-76
2022/03/27 12:23:52;;;;;;;9.40;6.50;;;19.20;55.50;;;;;;4966946;28;44129;-78
2022/03/27 12:32:05;;;;;;;6.73;6.13;;;19.00;55.60;;;;;;4960360;28;44011;-81
2022/03/27 12:34:34;;;;;;;6.63;5.80;;;19.00;55.90;;;;;;4950323;28;45767;-79
2022/03/27 12:37:10;;;;;;;9.23;5.87;;;19.00;55.30;;;;;;4950578;28;46037;-78
2022/03/27 12:39:39;;;;;;;9.90;5.17;;;19.00;55.10;;;;;;4950764;28;44272;-77
2022/03/27 12:42:07;;;;;;;6.37;5.70;;;19.10;54.10;;;;;;4953273;28;44173;-75
2022/03/27 12:44:54;;;;;;;19.80;6.20;;;19.20;52.40;;;;;;4970883;28;44079;-74
2022/03/27 12:47:33;;;;;;;61.27;8.47;;;19.30;52.30;;;;;;4954960;28;43473;-75
2022/03/27 12:50:00;;;;;;;86.87;10.70;;;19.40;54.40;;;;;;4970182;28;44045;-75
2022/03/27 12:52:29;;;;;;;85.33;10.93;;;19.30;55.30;;;;;;4970532;28;43900;-75
2022/03/27 12:54:58;;;;;;;50.10;9.17;;;19.30;55.30;;;;;;4969811;28;43922;-76
2022/03/27 12:57:27;;;;;;;34.93;7.97;;;19.30;55.50;;;;;;4969971;28;43906;-74
2022/03/27 12:59:55;;;;;;;42.30;7.53;;;19.20;55.50;;;;;;4951237;28;44002;-75
2022/03/27 13:02:27;;;;;;;27.50;6.40;;;19.20;55.60;;;;;;4970502;28;44002;-74
2022/03/27 13:05:01;;;;;;;23.03;6.43;;;19.10;55.40;;;;;;4970035;28;44001;-77
2022/03/27 13:07:50;;;;;;;20.70;6.27;;;19.10;55.40;;;;;;4969786;28;44000;-77
2022/03/27 13:10:19;;;;;;;12.73;5.30;;;19.10;55.40;;;;;;4943310;28;44037;-77
2022/03/27 13:12:47;;;;;;;11.17;5.00;;;19.00;53.70;;;;;;4957514;28;44062;-77
2022/03/27 13:15:36;;;;;;;14.10;5.30;;;19.10;52.90;;;;;;4958278;28;43908;-75